sensor_id;sensor_type;location;lat;lon;timestamp;pressure;altitude;pressure_sealevel;temperature;humidity
32642;BME280;19323;56.072;9.698;2023-03-23T00:00:31;99137.25;;;25.71;41.98
32642;BME280;19323;56.072;9.698;2023-03-23T00:02:57;99133.75;;;25.70;42.12
32642;BME280;19323;56.072;9.698;2023-03-23T00:05:22;99128.38;;;25.70;41.99
32642;BME280;19323;56.072;9.698;2023-03-23T00:07:47;99117.66;;;25.70;41.90
32642;BME280;19323;56.072;9.698;2023-03-23T00:10:16;99118.69;;;25.69;41.82
32642;BME280;19323;56.072;9.698;2023-03-23T00:12:42;99122.19;;;25.70;41.92
32642;BME280;19323;56.072;9.698;2023-03-23T00:15:09;99122.19;;;25.70;42.06
32642;BME280;19323;56.072;9.698;2023-03-23T00:17:37;99113.31;;;25.69;42.09
32642;BME280;19323;56.072;9.698;2023-03-23T00:20:03;99107.75;;;25.71;41.82
32642;BME280;19323;56.072;9.698;2023-03-23T00:22:30;99109.59;;;25.70;42.06
32642;BME280;19323;56.072;9.698;2023-03-23T00:24:56;99109.78;;;25.69;41.94
32642;BME280;19323;56.072;9.698;2023-03-23T00:27:21;99100.94;;;25.68;41.98
32642;BME280;19323;56.072;9.698;2023-03-23T00:29:49;99100.94;;;25.68;41.94
32642;BME280;19323;56.072;9.698;2023-03-23T00:32:17;99098.25;;;25.68;42.04
32642;BME280;19323;56.072;9.698;2023-03-23T00:34:43;99098.25;;;25.68;41.69
32642;BME280;19323;56.072;9.698;2023-03-23T00:37:11;99101.97;;;25.67;41.76
32642;BME280;19323;56.072;9.698;2023-03-23T00:39:37;99097.63;;;25.66;41.81
32642;BME280;19323;56.072;9.698;2023-03-23T00:42:02;99086.06;;;25.66;41.94
32642;BME280;19323;56.072;9.698;2023-03-23T00:44:29;99085.25;;;25.65;42.08
32642;BME280;19323;56.072;9.698;2023-03-23T00:46:55;99079.06;;;25.65;41.88
32642;BME280;19323;56.072;9.698;2023-03-23T00:49:21;99076.38;;;25.65;42.03
32642;BME280;19323;56.072;9.698;2023-03-23T00:51:50;99078.03;;;25.66;41.89
32642;BME280;19323;56.072;9.698;2023-03-23T00:54:16;99087.94;;;25.65;41.78
32642;BME280;19323;56.072;9.698;2023-03-23T00:56:41;99082.56;;;25.65;41.93
32642;BME280;19323;56.072;9.698;2023-03-23T00:59:06;99070.81;;;25.66;41.70
32642;BME280;19323;56.072;9.698;2023-03-23T01:01:31;99057.41;;;25.66;42.08
32642;BME280;19323;56.072;9.698;2023-03-23T01:04:00;99059.06;;;25.67;41.96
32642;BME280;19323;56.072;9.698;2023-03-23T01:06:29;99058.22;;;25.67;41.88
32642;BME280;19323;56.072;9.698;2023-03-23T01:08:55;99045.84;;;25.66;41.78
32642;BME280;19323;56.072;9.698;2023-03-23T01:11:21;99055.75;;;25.65;41.71
32642;BME280;19323;56.072;9.698;2023-03-23T01:13:46;99046.66;;;25.66;42.03
32642;BME280;19323;56.072;9.698;2023-03-23T01:16:11;99040.50;;;25.66;41.82
32642;BME280;19323;56.072;9.698;2023-03-23T01:18:37;99028.94;;;25.65;41.69
32642;BME280;19323;56.072;9.698;2023-03-23T01:21:03;99016.56;;;25.64;41.70
32642;BME280;19323;56.072;9.698;2023-03-23T01:23:29;99022.75;;;25.65;41.82
32642;BME280;19323;56.072;9.698;2023-03-23T01:25:54;99016.56;;;25.64;41.72
32642;BME280;19323;56.072;9.698;2023-03-23T01:28:22;99016.34;;;25.66;41.77
32642;BME280;19323;56.072;9.698;2023-03-23T01:30:48;99024.41;;;25.66;41.76
32642;BME280;19323;56.072;9.698;2023-03-23T01:33:13;99018.84;;;25.67;41.88
32642;BME280;19323;56.072;9.698;2023-03-23T01:35:38;99009.75;;;25.68;41.68
32642;BME280;19323;56.072;9.698;2023-03-23T01:38:03;99010.81;;;25.67;41.85
32642;BME280;19323;56.072;9.698;2023-03-23T01:40:28;99009.13;;;25.66;41.59
32642;BME280;19323;56.072;9.698;2023-03-23T01:42:53;99007.09;;;25.68;41.71
32642;BME280;19323;56.072;9.698;2023-03-23T01:47:44;98991.00;;;25.68;41.81
32642;BME280;19323;56.072;9.698;2023-03-23T01:50:10;98988.31;;;25.68;41.88
32642;BME280;19323;56.072;9.698;2023-03-23T01:52:35;98992.66;;;25.69;41.73
32642;BME280;19323;56.072;9.698;2023-03-23T01:55:01;98991.81;;;25.69;41.59
32642;BME280;19323;56.072;9.698;2023-03-23T01:57:26;98997.19;;;25.69;41.59
32642;BME280;19323;56.072;9.698;2023-03-23T01:59:52;98991.81;;;25.69;41.56
32642;BME280;19323;56.072;9.698;2023-03-23T02:02:18;98995.53;;;25.68;41.83
32642;BME280;19323;56.072;9.698;2023-03-23T02:04:45;98990.16;;;25.68;41.74
32642;BME280;19323;56.072;9.698;2023-03-23T02:07:11;98992.84;;;25.68;41.69
32642;BME280;19323;56.072;9.698;2023-03-23T02:09:37;98977.78;;;25.67;41.84
32642;BME280;19323;56.072;9.698;2023-03-23T02:12:02;98976.97;;;25.66;41.67
32642;BME280;19323;56.072;9.698;2023-03-23T02:14:27;98976.13;;;25.66;41.66
32642;BME280;19323;56.072;9.698;2023-03-23T02:17:02;98967.28;;;25.65;41.77
32642;BME280;19323;56.072;9.698;2023-03-23T02:24:41;98952.19;;;25.64;41.92
32642;BME280;19323;56.072;9.698;2023-03-23T02:32:06;98951.19;;;25.65;41.84
32642;BME280;19323;56.072;9.698;2023-03-23T02:37:08;98950.16;;;25.66;41.65
32642;BME280;19323;56.072;9.698;2023-03-23T02:39:37;98949.31;;;25.66;41.90
32642;BME280;19323;56.072;9.698;2023-03-23T02:42:10;98951.19;;;25.65;41.82
32642;BME280;19323;56.072;9.698;2023-03-23T02:44:37;98951.19;;;25.65;41.57
32642;BME280;19323;56.072;9.698;2023-03-23T02:47:05;98947.69;;;25.65;41.71
32642;BME280;19323;56.072;9.698;2023-03-23T02:49:32;98952.19;;;25.64;41.80
32642;BME280;19323;56.072;9.698;2023-03-23T02:52:00;98936.13;;;25.64;41.76
32642;BME280;19323;56.072;9.698;2023-03-23T02:54:26;98941.47;;;25.64;41.78
32642;BME280;19323;56.072;9.698;2023-03-23T02:56:52;98936.13;;;25.64;41.84
32642;BME280;19323;56.072;9.698;2023-03-23T02:59:18;98931.59;;;25.65;41.72
32642;BME280;19323;56.072;9.698;2023-03-23T03:01:50;98925.38;;;25.64;41.63
32642;BME280;19323;56.072;9.698;2023-03-23T03:04:19;98919.03;;;25.65;41.63
32642;BME280;19323;56.072;9.698;2023-03-23T03:06:49;98919.03;;;25.65;41.58
32642;BME280;19323;56.072;9.698;2023-03-23T03:09:22;98904.78;;;25.65;41.79
32642;BME280;19323;56.072;9.698;2023-03-23T03:11:52;98890.53;;;25.64;41.88
32642;BME280;19323;56.072;9.698;2023-03-23T03:14:23;98895.91;;;25.64;41.93
32642;BME280;19323;56.072;9.698;2023-03-23T03:19:32;98886.22;;;25.63;41.87
32642;BME280;19323;56.072;9.698;2023-03-23T03:22:00;98887.84;;;25.64;41.51
32642;BME280;19323;56.072;9.698;2023-03-23T03:24:26;98890.53;;;25.64;41.64
32642;BME280;19323;56.072;9.698;2023-03-23T03:26:53;98888.72;;;25.65;41.54
32642;BME280;19323;56.072;9.698;2023-03-23T03:29:23;98884.16;;;25.65;41.68
32642;BME280;19323;56.072;9.698;2023-03-23T03:31:50;98879.81;;;25.64;41.55
32642;BME280;19323;56.072;9.698;2023-03-23T03:34:17;98883.34;;;25.65;42.00
32642;BME280;19323;56.072;9.698;2023-03-23T03:36:43;98875.50;;;25.63;41.52
32642;BME280;19323;56.072;9.698;2023-03-23T03:39:10;98872.81;;;25.63;41.56
32642;BME280;19323;56.072;9.698;2023-03-23T03:41:36;98875.50;;;25.63;41.68
32642;BME280;19323;56.072;9.698;2023-03-23T03:44:02;98867.44;;;25.63;41.83
32642;BME280;19323;56.072;9.698;2023-03-23T03:46:27;98875.50;;;25.63;41.67
32642;BME280;19323;56.072;9.698;2023-03-23T03:48:55;98875.50;;;25.63;41.58
32642;BME280;19323;56.072;9.698;2023-03-23T03:51:21;98874.69;;;25.63;41.76
32642;BME280;19323;56.072;9.698;2023-03-23T03:53:46;98866.63;;;25.63;41.61
32642;BME280;19323;56.072;9.698;2023-03-23T03:56:11;98864.78;;;25.63;41.73
32642;BME280;19323;56.072;9.698;2023-03-23T03:58:38;98863.97;;;25.63;41.73
32642;BME280;19323;56.072;9.698;2023-03-23T04:01:03;98861.28;;;25.63;41.79
32642;BME280;19323;56.072;9.698;2023-03-23T04:03:28;98862.91;;;25.64;41.78
32642;BME280;19323;56.072;9.698;2023-03-23T04:05:54;98854.88;;;25.64;41.46
32642;BME280;19323;56.072;9.698;2023-03-23T04:08:20;98849.50;;;25.64;41.55
32642;BME280;19323;56.072;9.698;2023-03-23T04:10:46;98850.31;;;25.64;41.74
32642;BME280;19323;56.072;9.698;2023-03-23T04:13:12;98840.66;;;25.63;41.55
32642;BME280;19323;56.072;9.698;2023-03-23T04:15:37;98832.59;;;25.63;41.53
32642;BME280;19323;56.072;9.698;2023-03-23T04:18:03;98831.56;;;25.64;41.55
32642;BME280;19323;56.072;9.698;2023-03-23T04:20:30;98844.97;;;25.64;41.76
32642;BME280;19323;56.072;9.698;2023-03-23T04:22:55;98834.22;;;25.64;41.58
32642;BME280;19323;56.072;9.698;2023-03-23T04:25:20;98836.91;;;25.64;41.79
32642;BME280;19323;56.072;9.698;2023-03-23T04:27:46;98828.69;;;25.66;41.52
32642;BME280;19323;56.072;9.698;2023-03-23T04:30:17;98819.81;;;25.65;41.46
32642;BME280;19323;56.072;9.698;2023-03-23T04:32:42;98820.00;;;25.64;41.50
32642;BME280;19323;56.072;9.698;2023-03-23T04:35:11;98822.69;;;25.64;41.59
32642;BME280;19323;56.072;9.698;2023-03-23T04:37:37;98815.69;;;25.63;41.64
32642;BME280;19323;56.072;9.698;2023-03-23T04:40:03;98819.38;;;25.62;41.83
32642;BME280;19323;56.072;9.698;2023-03-23T04:42:35;98811.16;;;25.63;41.48
32642;BME280;19323;56.072;9.698;2023-03-23T04:45:02;98813.84;;;25.63;41.50
32642;BME280;19323;56.072;9.698;2023-03-23T04:47:27;98802.28;;;25.63;41.64
32642;BME280;19323;56.072;9.698;2023-03-23T04:49:54;98790.53;;;25.64;41.92
32642;BME280;19323;56.072;9.698;2023-03-23T04:52:19;98801.06;;;25.65;41.61
32642;BME280;19323;56.072;9.698;2023-03-23T04:54:45;98797.56;;;25.65;41.90
32642;BME280;19323;56.072;9.698;2023-03-23T04:57:10;98797.56;;;25.65;41.65
32642;BME280;19323;56.072;9.698;2023-03-23T04:59:37;98803.72;;;25.65;41.84
32642;BME280;19323;56.072;9.698;2023-03-23T05:02:02;98801.25;;;25.64;41.58
32642;BME280;19323;56.072;9.698;2023-03-23T05:04:27;98803.09;;;25.63;41.96
32642;BME280;19323;56.072;9.698;2023-03-23T05:06:52;98800.44;;;25.63;41.96
32642;BME280;19323;56.072;9.698;2023-03-23T05:09:18;98801.44;;;25.62;41.70
32642;BME280;19323;56.072;9.698;2023-03-23T05:11:44;98794.88;;;25.65;41.86
32642;BME280;19323;56.072;9.698;2023-03-23T05:14:09;98772.38;;;25.66;41.73
32642;BME280;19323;56.072;9.698;2023-03-23T05:16:35;98769.69;;;25.66;41.83
32642;BME280;19323;56.072;9.698;2023-03-23T05:19:01;98771.31;;;25.67;41.70
32642;BME280;19323;56.072;9.698;2023-03-23T05:21:26;98782.06;;;25.67;42.08
32642;BME280;19323;56.072;9.698;2023-03-23T05:23:53;98789.09;;;25.68;41.78
32642;BME280;19323;56.072;9.698;2023-03-23T05:26:20;98796.31;;;25.67;41.66
32642;BME280;19323;56.072;9.698;2023-03-23T05:28:45;98789.09;;;25.68;42.00
32642;BME280;19323;56.072;9.698;2023-03-23T05:31:10;98781.84;;;25.68;42.00
32642;BME280;19323;56.072;9.698;2023-03-23T05:33:36;98742.69;;;25.47;41.89
32642;BME280;19323;56.072;9.698;2023-03-23T05:36:01;98775.25;;;25.71;41.76
32642;BME280;19323;56.072;9.698;2023-03-23T05:38:29;98766.38;;;25.70;41.65
32642;BME280;19323;56.072;9.698;2023-03-23T05:40:57;98775.06;;;25.73;41.55
32642;BME280;19323;56.072;9.698;2023-03-23T05:43:24;98766.19;;;25.72;41.90
32642;BME280;19323;56.072;9.698;2023-03-23T05:45:50;98766.19;;;25.72;41.62
32642;BME280;19323;56.072;9.698;2023-03-23T05:48:15;98764.31;;;25.73;41.88
32642;BME280;19323;56.072;9.698;2023-03-23T05:50:40;98760.81;;;25.72;41.82
32642;BME280;19323;56.072;9.698;2023-03-23T05:53:05;98767.19;;;25.71;41.83
32642;BME280;19323;56.072;9.698;2023-03-23T05:55:31;98761.03;;;25.70;41.63
32642;BME280;19323;56.072;9.698;2023-03-23T05:57:56;98760.22;;;25.70;41.40
32642;BME280;19323;56.072;9.698;2023-03-23T06:00:22;98756.72;;;25.69;41.79
32642;BME280;19323;56.072;9.698;2023-03-23T06:02:48;98750.50;;;25.69;41.64
32642;BME280;19323;56.072;9.698;2023-03-23T06:05:13;98744.50;;;25.67;41.53
32642;BME280;19323;56.072;9.698;2023-03-23T06:07:40;98742.69;;;25.67;41.32
32642;BME280;19323;56.072;9.698;2023-03-23T06:10:05;98746.38;;;25.66;41.36
32642;BME280;19323;56.072;9.698;2023-03-23T06:12:32;98744.50;;;25.67;41.37
32642;BME280;19323;56.072;9.698;2023-03-23T06:14:57;98737.72;;;25.58;41.44
32642;BME280;19323;56.072;9.698;2023-03-23T06:17:22;98741.25;;;25.65;41.17
32642;BME280;19323;56.072;9.698;2023-03-23T06:19:47;98737.31;;;25.67;41.21
32642;BME280;19323;56.072;9.698;2023-03-23T06:22:14;98722.25;;;25.66;41.26
32642;BME280;19323;56.072;9.698;2023-03-23T06:24:40;98723.28;;;25.65;41.19
32642;BME280;19323;56.072;9.698;2023-03-23T06:27:05;98717.94;;;25.65;41.26
32642;BME280;19323;56.072;9.698;2023-03-23T06:29:30;98716.06;;;25.66;41.20
32642;BME280;19323;56.072;9.698;2023-03-23T06:31:56;98708.22;;;25.64;41.21
32642;BME280;19323;56.072;9.698;2023-03-23T06:34:23;98705.53;;;25.64;41.10
32642;BME280;19323;56.072;9.698;2023-03-23T06:36:49;98705.53;;;25.64;41.15
32642;BME280;19323;56.072;9.698;2023-03-23T06:39:14;98697.50;;;25.64;41.31
32642;BME280;19323;56.072;9.698;2023-03-23T06:41:40;98706.59;;;25.63;41.15
32642;BME280;19323;56.072;9.698;2023-03-23T06:44:05;98698.56;;;25.63;41.46
32642;BME280;19323;56.072;9.698;2023-03-23T06:46:31;98703.09;;;25.63;41.32
32642;BME280;19323;56.072;9.698;2023-03-23T06:48:56;98690.72;;;25.62;41.42
32642;BME280;19323;56.072;9.698;2023-03-23T06:51:22;98687.22;;;25.61;41.33
32642;BME280;19323;56.072;9.698;2023-03-23T06:53:47;98687.41;;;25.60;41.13
32642;BME280;19323;56.072;9.698;2023-03-23T06:56:12;98686.78;;;25.58;41.31
32642;BME280;19323;56.072;9.698;2023-03-23T06:58:38;98685.16;;;25.57;41.51
32642;BME280;19323;56.072;9.698;2023-03-23T07:01:03;98680.81;;;25.56;41.40
32642;BME280;19323;56.072;9.698;2023-03-23T07:03:29;98673.63;;;25.56;40.93
32642;BME280;19323;56.072;9.698;2023-03-23T07:05:56;98679.78;;;25.57;41.25
32642;BME280;19323;56.072;9.698;2023-03-23T07:08:21;98674.63;;;25.55;41.11
32642;BME280;19323;56.072;9.698;2023-03-23T07:10:46;98677.31;;;25.55;41.04
32642;BME280;19323;56.072;9.698;2023-03-23T07:13:12;98670.31;;;25.54;41.22
32642;BME280;19323;56.072;9.698;2023-03-23T07:15:38;98672.16;;;25.54;41.11
32642;BME280;19323;56.072;9.698;2023-03-23T07:18:03;98684.53;;;25.55;41.10
32642;BME280;19323;56.072;9.698;2023-03-23T07:20:28;98671.94;;;25.55;41.13
32642;BME280;19323;56.072;9.698;2023-03-23T07:22:53;98669.28;;;25.55;41.07
32642;BME280;19323;56.072;9.698;2023-03-23T07:25:19;98673.63;;;25.56;41.20
32642;BME280;19323;56.072;9.698;2023-03-23T07:27:45;98660.22;;;25.56;41.08
32642;BME280;19323;56.072;9.698;2023-03-23T07:30:10;98663.09;;;25.55;40.87
32642;BME280;19323;56.072;9.698;2023-03-23T07:32:36;98655.88;;;25.55;40.89
32642;BME280;19323;56.072;9.698;2023-03-23T07:35:01;98656.91;;;25.54;40.99
32642;BME280;19323;56.072;9.698;2023-03-23T07:37:26;98665.78;;;25.55;40.85
32642;BME280;19323;56.072;9.698;2023-03-23T07:39:53;98652.38;;;25.55;40.81
32642;BME280;19323;56.072;9.698;2023-03-23T07:42:18;98650.72;;;25.54;40.79
32642;BME280;19323;56.072;9.698;2023-03-23T07:44:43;98647.22;;;25.53;40.81
32642;BME280;19323;56.072;9.698;2023-03-23T07:47:09;98640.84;;;25.54;40.84
32642;BME280;19323;56.072;9.698;2023-03-23T07:49:34;98646.19;;;25.54;40.83
32642;BME280;19323;56.072;9.698;2023-03-23T07:51:59;98651.56;;;25.54;41.04
32642;BME280;19323;56.072;9.698;2023-03-23T07:54:26;98646.19;;;25.54;40.81
32642;BME280;19323;56.072;9.698;2023-03-23T07:56:51;98640.84;;;25.54;40.73
32642;BME280;19323;56.072;9.698;2023-03-23T07:59:16;98642.47;;;25.55;40.69
32642;BME280;19323;56.072;9.698;2023-03-23T08:01:42;98647.81;;;25.55;40.62
32642;BME280;19323;56.072;9.698;2023-03-23T08:04:07;98650.50;;;25.55;40.89
32642;BME280;19323;56.072;9.698;2023-03-23T08:06:33;98641.66;;;25.55;40.70
32642;BME280;19323;56.072;9.698;2023-03-23T08:08:58;98638.34;;;25.53;40.63
32642;BME280;19323;56.072;9.698;2023-03-23T08:11:25;98640.22;;;25.52;40.44
32642;BME280;19323;56.072;9.698;2023-03-23T08:13:50;98641.84;;;25.53;40.31
32642;BME280;19323;56.072;9.698;2023-03-23T08:16:15;98637.53;;;25.52;40.50
32642;BME280;19323;56.072;9.698;2023-03-23T08:18:40;98643.91;;;25.51;40.36
32642;BME280;19323;56.072;9.698;2023-03-23T08:21:06;98613.66;;;25.31;40.23
32642;BME280;19323;56.072;9.698;2023-03-23T08:23:34;98643.91;;;25.51;40.18
32642;BME280;19323;56.072;9.698;2023-03-23T08:25:59;98649.28;;;25.51;40.34
32642;BME280;19323;56.072;9.698;2023-03-23T08:28:25;98644.97;;;25.50;40.30
32642;BME280;19323;56.072;9.698;2023-03-23T08:30:50;98642.28;;;25.50;40.25
32642;BME280;19323;56.072;9.698;2023-03-23T08:33:15;98638.78;;;25.49;40.29
32642;BME280;19323;56.072;9.698;2023-03-23T08:35:41;98644.16;;;25.49;40.17
32642;BME280;19323;56.072;9.698;2023-03-23T08:38:07;98640.00;;;25.47;40.26
32642;BME280;19323;56.072;9.698;2023-03-23T08:40:32;98641.88;;;25.46;40.13
32642;BME280;19323;56.072;9.698;2023-03-23T08:42:58;98649.09;;;25.46;40.02
32642;BME280;19323;56.072;9.698;2023-03-23T08:45:24;98649.09;;;25.46;40.28
32642;BME280;19323;56.072;9.698;2023-03-23T08:47:49;98652.78;;;25.45;39.97
32642;BME280;19323;56.072;9.698;2023-03-23T08:50:17;98646.59;;;25.44;40.03
32642;BME280;19323;56.072;9.698;2023-03-23T08:52:43;98650.34;;;25.43;40.00
32642;BME280;19323;56.072;9.698;2023-03-23T08:55:08;98651.34;;;25.42;39.82
32642;BME280;19323;56.072;9.698;2023-03-23T08:57:34;98657.75;;;25.41;40.07
32642;BME280;19323;56.072;9.698;2023-03-23T09:00:00;98660.44;;;25.41;39.86
32642;BME280;19323;56.072;9.698;2023-03-23T09:02:38;98670.34;;;25.41;40.04
32642;BME280;19323;56.072;9.698;2023-03-23T09:05:03;98683.75;;;25.41;39.96
32642;BME280;19323;56.072;9.698;2023-03-23T09:07:28;98678.38;;;25.41;40.03
32642;BME280;19323;56.072;9.698;2023-03-23T09:09:53;98683.75;;;25.41;39.78
32642;BME280;19323;56.072;9.698;2023-03-23T09:12:18;98665.19;;;25.26;39.57
32642;BME280;19323;56.072;9.698;2023-03-23T09:14:44;98685.56;;;25.40;39.83
32642;BME280;19323;56.072;9.698;2023-03-23T09:17:09;98685.81;;;25.39;39.63
32642;BME280;19323;56.072;9.698;2023-03-23T09:19:35;98695.28;;;25.41;39.62
32642;BME280;19323;56.072;9.698;2023-03-23T09:22:00;98693.41;;;25.42;39.93
32642;BME280;19323;56.072;9.698;2023-03-23T09:24:25;98698.78;;;25.42;39.69
32642;BME280;19323;56.072;9.698;2023-03-23T09:26:51;98705.78;;;25.43;39.81
32642;BME280;19323;56.072;9.698;2023-03-23T09:29:17;98706.38;;;25.45;39.97
32642;BME280;19323;56.072;9.698;2023-03-23T09:31:43;98708.06;;;25.46;39.66
32642;BME280;19323;56.072;9.698;2023-03-23T09:34:11;98715.03;;;25.47;39.83
32642;BME280;19323;56.072;9.698;2023-03-23T09:36:36;98711.56;;;25.46;39.63
32642;BME280;19323;56.072;9.698;2023-03-23T09:39:03;98717.53;;;25.48;39.65
32642;BME280;19323;56.072;9.698;2023-03-23T09:41:46;98706.81;;;25.48;39.91
32642;BME280;19323;56.072;9.698;2023-03-23T09:44:21;98709.50;;;25.48;39.48
32642;BME280;19323;56.072;9.698;2023-03-23T09:49:15;98722.06;;;25.48;39.86
32642;BME280;19323;56.072;9.698;2023-03-23T09:51:44;98723.94;;;25.47;39.63
32642;BME280;19323;56.072;9.698;2023-03-23T09:56:40;98731.75;;;25.49;39.76
32642;BME280;19323;56.072;9.698;2023-03-23T10:01:43;98742.28;;;25.51;39.73
32642;BME280;19323;56.072;9.698;2023-03-23T10:06:50;98748.44;;;25.51;39.85
32642;BME280;19323;56.072;9.698;2023-03-23T10:09:16;98742.47;;;25.49;39.70
32642;BME280;19323;56.072;9.698;2023-03-23T10:12:03;98749.50;;;25.50;39.69
32642;BME280;19323;56.072;9.698;2023-03-23T10:19:46;98779.19;;;25.48;39.83
32642;BME280;19323;56.072;9.698;2023-03-23T10:22:12;98780.00;;;25.49;39.89
32642;BME280;19323;56.072;9.698;2023-03-23T10:24:49;98780.84;;;25.49;39.67
32642;BME280;19323;56.072;9.698;2023-03-23T10:27:25;98785.16;;;25.51;40.08
32642;BME280;19323;56.072;9.698;2023-03-23T10:30:00;98790.53;;;25.51;39.74
32642;BME280;19323;56.072;9.698;2023-03-23T10:35:14;98794.44;;;25.48;39.59
32642;BME280;19323;56.072;9.698;2023-03-23T10:37:44;98789.09;;;25.48;39.89
32642;BME280;19323;56.072;9.698;2023-03-23T10:40:17;98799.81;;;25.48;39.74
32642;BME280;19323;56.072;9.698;2023-03-23T10:42:44;98809.47;;;25.49;39.68
32642;BME280;19323;56.072;9.698;2023-03-23T10:45:28;98813.22;;;25.48;39.83
32642;BME280;19323;56.072;9.698;2023-03-23T10:50:26;98818.56;;;25.48;39.77
32642;BME280;19323;56.072;9.698;2023-03-23T10:52:52;98830.31;;;25.47;39.81
32642;BME280;19323;56.072;9.698;2023-03-23T10:55:20;98837.53;;;25.46;39.84
32642;BME280;19323;56.072;9.698;2023-03-23T11:00:32;98848.25;;;25.46;39.94
32642;BME280;19323;56.072;9.698;2023-03-23T11:05:24;98855.28;;;25.47;40.11
32642;BME280;19323;56.072;9.698;2023-03-23T11:07:56;98856.28;;;25.46;40.17
32642;BME280;19323;56.072;9.698;2023-03-23T11:10:23;98849.06;;;25.47;39.90
32642;BME280;19323;56.072;9.698;2023-03-23T11:12:49;98854.44;;;25.47;39.87
32642;BME280;19323;56.072;9.698;2023-03-23T11:15:16;98851.75;;;25.47;40.04
32642;BME280;19323;56.072;9.698;2023-03-23T11:17:54;98856.28;;;25.46;39.83
32642;BME280;19323;56.072;9.698;2023-03-23T11:20:20;98861.84;;;25.45;39.96
32642;BME280;19323;56.072;9.698;2023-03-23T11:22:45;98856.47;;;25.45;39.96
32642;BME280;19323;56.072;9.698;2023-03-23T11:25:12;98866.19;;;25.46;39.83
32642;BME280;19323;56.072;9.698;2023-03-23T11:27:38;98868.06;;;25.45;40.10
32642;BME280;19323;56.072;9.698;2023-03-23T11:30:08;98874.22;;;25.46;40.05
32642;BME280;19323;56.072;9.698;2023-03-23T11:32:34;98876.91;;;25.46;40.16
32642;BME280;19323;56.072;9.698;2023-03-23T11:35:01;98875.03;;;25.46;40.07
32642;BME280;19323;56.072;9.698;2023-03-23T11:37:38;98877.91;;;25.45;39.93
32642;BME280;19323;56.072;9.698;2023-03-23T11:45:07;98884.53;;;25.42;40.01
32642;BME280;19323;56.072;9.698;2023-03-23T11:47:39;98888.03;;;25.43;40.09
32642;BME280;19323;56.072;9.698;2023-03-23T11:50:12;98885.34;;;25.43;40.13
32642;BME280;19323;56.072;9.698;2023-03-23T11:55:25;98894.41;;;25.42;40.22
32642;BME280;19323;56.072;9.698;2023-03-23T11:57:51;98899.16;;;25.40;40.07
32642;BME280;19323;56.072;9.698;2023-03-23T12:00:18;98901.84;;;25.40;40.06
32642;BME280;19323;56.072;9.698;2023-03-23T12:02:49;98899.97;;;25.40;40.24
32642;BME280;19323;56.072;9.698;2023-03-23T12:06:00;98902.66;;;25.40;40.32
32642;BME280;19323;56.072;9.698;2023-03-23T12:13:42;98923.28;;;25.40;40.04
32642;BME280;19323;56.072;9.698;2023-03-23T12:23:59;98930.09;;;25.42;40.50
32642;BME280;19323;56.072;9.698;2023-03-23T12:26:30;98931.53;;;25.45;40.45
32642;BME280;19323;56.072;9.698;2023-03-23T12:29:08;98936.69;;;25.46;40.29
32642;BME280;19323;56.072;9.698;2023-03-23T12:34:20;98939.59;;;25.52;40.30
32642;BME280;19323;56.072;9.698;2023-03-23T12:44:54;98954.25;;;25.56;40.17
32642;BME280;19323;56.072;9.698;2023-03-23T12:47:23;98955.91;;;25.57;40.18
32642;BME280;19323;56.072;9.698;2023-03-23T12:52:26;98963.75;;;25.58;40.21
32642;BME280;19323;56.072;9.698;2023-03-23T12:54:58;98964.34;;;25.60;40.06
32642;BME280;19323;56.072;9.698;2023-03-23T12:57:30;98968.72;;;25.61;40.01
32642;BME280;19323;56.072;9.698;2023-03-23T12:59:59;98967.66;;;25.62;40.07
32642;BME280;19323;56.072;9.698;2023-03-23T13:02:39;98976.56;;;25.63;40.16
32642;BME280;19323;56.072;9.698;2023-03-23T13:05:11;98944.31;;;25.43;40.17
32642;BME280;19323;56.072;9.698;2023-03-23T13:07:42;98976.13;;;25.66;40.27
32642;BME280;19323;56.072;9.698;2023-03-23T13:12:33;98975.94;;;25.67;40.19
32642;BME280;19323;56.072;9.698;2023-03-23T13:15:48;98977.59;;;25.68;40.19
32642;BME280;19323;56.072;9.698;2023-03-23T13:25:52;98975.53;;;25.77;39.92
32642;BME280;19323;56.072;9.698;2023-03-23T13:28:23;98978.66;;;25.81;40.05
32642;BME280;19323;56.072;9.698;2023-03-23T13:31:04;98979.06;;;25.84;39.98
32642;BME280;19323;56.072;9.698;2023-03-23T13:33:36;98983.22;;;25.87;40.08
32642;BME280;19323;56.072;9.698;2023-03-23T13:36:07;98989.25;;;25.89;39.90
32642;BME280;19323;56.072;9.698;2023-03-23T13:38:32;98986.94;;;25.93;39.97
32642;BME280;19323;56.072;9.698;2023-03-23T13:40:58;98991.94;;;25.96;40.02
32642;BME280;19323;56.072;9.698;2023-03-23T13:43:34;98997.69;;;25.99;40.14
32642;BME280;19323;56.072;9.698;2023-03-23T13:48:39;99001.44;;;26.05;40.12
32642;BME280;19323;56.072;9.698;2023-03-23T13:51:23;99009.06;;;26.08;39.84
32642;BME280;19323;56.072;9.698;2023-03-23T13:53:49;99003.06;;;26.13;40.27
32642;BME280;19323;56.072;9.698;2023-03-23T13:58:49;99000.63;;;26.18;40.13
32642;BME280;19323;56.072;9.698;2023-03-23T14:01:17;99016.31;;;26.21;39.88
32642;BME280;19323;56.072;9.698;2023-03-23T14:03:45;99021.06;;;26.25;39.98
32642;BME280;19323;56.072;9.698;2023-03-23T14:06:15;99014.44;;;26.28;40.30
32642;BME280;19323;56.072;9.698;2023-03-23T14:08:42;99019.41;;;26.31;39.89
32642;BME280;19323;56.072;9.698;2023-03-23T14:11:16;99020.03;;;26.33;40.23
32642;BME280;19323;56.072;9.698;2023-03-23T14:16:22;99027.47;;;26.38;40.23
32642;BME280;19323;56.072;9.698;2023-03-23T14:18:50;99030.78;;;26.40;39.91
32642;BME280;19323;56.072;9.698;2023-03-23T14:21:17;99038.41;;;26.43;40.00
32642;BME280;19323;56.072;9.698;2023-03-23T14:23:42;99042.75;;;26.44;40.11
32642;BME280;19323;56.072;9.698;2023-03-23T14:26:11;99047.91;;;26.45;39.83
32642;BME280;19323;56.072;9.698;2023-03-23T14:28:41;99049.38;;;26.48;40.36
32642;BME280;19323;56.072;9.698;2023-03-23T14:31:14;99061.94;;;26.47;39.87
32642;BME280;19323;56.072;9.698;2023-03-23T14:33:41;99054.53;;;26.49;39.87
32642;BME280;19323;56.072;9.698;2023-03-23T14:36:06;99055.16;;;26.51;40.15